Time;durP1;ratioP1;P1;durP2;ratioP2;P2;SDS_P1;SDS_P2;PMS_P1;PMS_P2;Temp;Humidity;BMP_temperature;BMP_pressure;BME280_temperature;BME280_humidity;BME280_pressure;Samples;Min_cycle;Max_cycle;Signal;HPM_P1;HPM_P2
2022/05/20 06:42:21;;;;;;;10.88;9.18;;;;;;;;;;10619107;28;20031;-86
2022/05/20 06:59:20;;;;;;;11.45;9.57;;;;;;;;;;10616935;28;20034;-86
2022/05/20 07:04:21;;;;;;;6.13;3.55;;;;;;;;;;10610446;27;20031;-84
2022/05/20 07:09:23;;;;;;;6.00;3.53;;;;;;;;;;10609423;28;20134;-86
2022/05/20 07:14:24;;;;;;;8.43;6.22;;;;;;;;;;10583566;28;20127;-87
2022/05/20 07:19:25;;;;;;;6.50;5.00;;;;;;;;;;10581297;28;20096;-86
2022/05/20 07:24:26;;;;;;;8.68;5.95;;;;;;;;;;10574947;28;20514;-86
2022/05/20 07:29:28;;;;;;;9.50;7.40;;;;;;;;;;10572658;28;20036;-85
2022/05/20 07:34:32;;;;;;;8.68;6.28;;;;;;;;;;10585908;28;20031;-86
2022/05/20 07:39:38;;;;;;;11.05;9.40;;;;;;;;;;10597651;28;20035;-85
2022/05/20 07:44:43;;;;;;;8.55;7.40;;;;;;;;;;10607839;28;20082;-86
2022/05/20 07:49:45;;;;;;;7.80;6.40;;;;;;;;;;10592570;28;20038;-87
2022/05/20 07:54:46;;;;;;;11.10;9.80;;;;;;;;;;10573665;28;20485;-88
2022/05/20 07:59:49;;;;;;;11.27;9.80;;;;;;;;;;10575865;28;20395;-88
2022/05/20 08:05:01;;;;;;;11.30;9.05;;;;;;;;;;10574082;28;20063;-84
2022/05/20 08:10:07;;;;;;;13.13;9.80;;;;;;;;;;10586092;28;20038;-84
2022/05/20 08:15:09;;;;;;;8.43;7.30;;;;;;;;;;10587335;28;20043;-84
2022/05/20 08:20:27;;;;;;;12.02;10.32;;;;;;;;;;10587624;28;20100;-84
2022/05/20 08:25:29;;;;;;;9.13;7.78;;;;;;;;;;10585742;28;20059;-85
2022/05/20 08:30:31;;;;;;;9.70;7.75;;;;;;;;;;10590582;28;20038;-83
2022/05/20 08:35:32;;;;;;;13.35;7.85;;;;;;;;;;10588176;28;20039;-83
2022/05/20 08:40:43;;;;;;;10.63;7.55;;;;;;;;;;10586985;28;20027;-82
2022/05/20 08:45:44;;;;;;;9.18;7.65;;;;;;;;;;10585046;28;20098;-83
2022/05/20 08:50:46;;;;;;;8.80;6.22;;;;;;;;;;10584010;28;20035;-83
2022/05/20 08:55:48;;;;;;;9.07;6.10;;;;;;;;;;10600387;28;20032;-83
2022/05/20 09:00:49;;;;;;;8.98;7.22;;;;;;;;;;10587133;28;20070;-84
2022/05/20 09:06:01;;;;;;;7.07;5.60;;;;;;;;;;10582504;28;20035;-84
2022/05/20 09:11:04;;;;;;;7.78;6.50;;;;;;;;;;10598603;28;20035;-86
2022/05/20 09:16:06;;;;;;;8.27;6.72;;;;;;;;;;10570311;28;20031;-88
2022/05/20 09:21:09;;;;;;;16.45;12.80;;;;;;;;;;10571663;28;20047;-87
2022/05/20 09:26:12;;;;;;;14.95;12.80;;;;;;;;;;10572511;28;20031;-88
2022/05/20 09:31:15;;;;;;;14.40;10.93;;;;;;;;;;10568252;28;20051;-87
2022/05/20 09:36:34;;;;;;;13.95;10.68;;;;;;;;;;10569730;28;20037;-87
2022/05/20 09:41:43;;;;;;;10.57;7.85;;;;;;;;;;10571239;28;20055;-87
2022/05/20 09:46:49;;;;;;;13.30;11.52;;;;;;;;;;10571278;28;20495;-86
2022/05/20 09:51:52;;;;;;;12.25;10.07;;;;;;;;;;10573896;28;20043;-87
2022/05/20 09:57:04;;;;;;;19.92;13.63;;;;;;;;;;10570907;28;20062;-86
2022/05/20 10:02:20;;;;;;;16.48;13.45;;;;;;;;;;10569360;28;20092;-86
2022/05/20 10:07:44;;;;;;;16.27;12.55;;;;;;;;;;10571470;28;20131;-86
2022/05/20 10:12:48;;;;;;;12.32;10.63;;;;;;;;;;10570097;28;20027;-86
2022/05/20 10:18:07;;;;;;;18.20;13.73;;;;;;;;;;10593756;28;20028;-84
2022/05/20 10:23:11;;;;;;;13.00;10.10;;;;;;;;;;10578409;28;20062;-84
2022/05/20 10:28:12;;;;;;;16.48;11.35;;;;;;;;;;10580231;28;20495;-85
2022/05/20 10:33:16;;;;;;;13.98;11.35;;;;;;;;;;10576813;28;20039;-85
2022/05/20 10:38:23;;;;;;;14.10;9.95;;;;;;;;;;10578261;28;20040;-86
2022/05/20 10:43:30;;;;;;;15.23;12.98;;;;;;;;;;10576209;28;20071;-85
2022/05/20 10:48:50;;;;;;;19.92;15.98;;;;;;;;;;10586180;28;20032;-84
2022/05/20 10:54:10;;;;;;;20.27;18.00;;;;;;;;;;10585734;28;20555;-83
2022/05/20 10:59:17;;;;;;;14.18;12.65;;;;;;;;;;10586730;28;20047;-84
2022/05/20 11:04:24;;;;;;;17.33;14.40;;;;;;;;;;10605189;28;20046;-84
2022/05/20 11:09:25;;;;;;;28.15;25.05;;;;;;;;;;10593539;28;20042;-84
2022/05/20 11:14:29;;;;;;;20.02;17.10;;;;;;;;;;10606872;28;20395;-84
2022/05/20 11:19:47;;;;;;;16.33;13.43;;;;;;;;;;10584792;28;20055;-84
2022/05/20 11:25:07;;;;;;;18.88;13.27;;;;;;;;;;10585660;28;20035;-84
2022/05/20 11:30:16;;;;;;;19.67;15.32;;;;;;;;;;10583042;28;20035;-84
2022/05/20 11:35:35;;;;;;;16.30;13.85;;;;;;;;;;10585309;28;20027;-84
2022/05/20 11:40:47;;;;;;;19.43;17.33;;;;;;;;;;10586308;28;20039;-84
2022/05/20 11:46:27;;;;;;;19.33;13.70;;;;;;;;;;10591230;28;20031;-83
2022/05/20 11:51:34;;;;;;;;;;;;;;;;;;10586160;28;20057;-84
2022/05/20 11:56:51;;;;;;;19.27;16.17;;;;;;;;;;10582835;28;19935;-84
2022/05/20 12:01:54;;;;;;;18.92;15.38;;;;;;;;;;10601290;28;20043;-83
2022/05/20 12:06:57;;;;;;;76.88;33.60;;;;;;;;;;10585462;28;20351;-84
2022/05/20 12:12:07;;;;;;;19.40;15.52;;;;;;;;;;10596604;28;20094;-84
2022/05/20 12:17:10;;;;;;;25.10;18.42;;;;;;;;;;10578576;28;20476;-84
2022/05/20 12:27:40;;;;;;;18.17;14.23;;;;;;;;;;10598948;28;20035;-82
2022/05/20 12:32:43;;;;;;;19.63;16.08;;;;;;;;;;10580166;28;20035;-83
2022/05/20 12:37:44;;;;;;;16.70;14.73;;;;;;;;;;10599191;28;20035;-83
2022/05/20 12:42:49;;;;;;;17.75;15.85;;;;;;;;;;10581630;28;20165;-83
2022/05/20 12:47:51;;;;;;;14.68;13.18;;;;;;;;;;10580643;28;20061;-84
2022/05/20 12:52:53;;;;;;;18.95;13.15;;;;;;;;;;10601522;28;20043;-82
2022/05/20 12:57:58;;;;;;;22.50;18.33;;;;;;;;;;10581156;28;20043;-80
2022/05/20 13:03:03;;;;;;;13.55;12.15;;;;;;;;;;10569480;28;20073;-84
2022/05/20 13:08:08;;;;;;;20.48;17.05;;;;;;;;;;10583175;28;20039;-85
2022/05/20 13:13:11;;;;;;;17.88;15.98;;;;;;;;;;10581419;28;20131;-83
2022/05/20 13:18:19;;;;;;;20.30;18.13;;;;;;;;;;10579611;28;20035;-83
2022/05/20 13:23:27;;;;;;;24.15;20.90;;;;;;;;;;10579994;28;20080;-83
2022/05/20 13:28:28;;;;;;;18.52;15.93;;;;;;;;;;10582468;28;20038;-82
2022/05/20 13:33:29;;;;;;;18.13;14.60;;;;;;;;;;10602538;28;20043;-82
2022/05/20 13:38:32;;;;;;;24.67;18.30;;;;;;;;;;10588189;28;20032;-83
2022/05/20 14:27:09;;;;;;;23.92;19.38;;;;;;;;;;11182252;22;20507;-82
2022/05/20 14:32:32;;;;;;;;;;;;;;;;;;;;;
2022/05/20 14:37:46;;;;;;;8.65;7.20;;;;;;;;;;10545516;28;20031;-82
2022/05/20 15:05:36;;;;;;;4.10;3.60;;;;;;;;;;10559525;28;20020;-81
2022/05/20 15:16:51;;;;;;;4.63;3.25;;;;;;;;;;10331920;28;20031;-81
2022/05/20 15:22:12;;;;;;;4.15;3.00;;;;;;;;;;10311345;28;20046;-80
2022/05/20 15:27:38;;;;;;;3.50;2.45;;;;;;;;;;10363222;28;20034;-80
2022/05/20 15:38:44;;;;;;;3.85;2.92;;;;;;;;;;10407745;28;20019;-79
2022/05/20 15:55:57;;;;;;;;;;;;;;;;;;;;;
2022/05/20 16:01:17;;;;;;;4.05;1.90;;;;;;;;;;10445183;28;20444;-79
2022/05/20 16:06:26;;;;;;;4.47;1.75;;;;;;;;;;10575215;28;20040;-80
2022/05/20 16:11:50;;;;;;;2.78;1.40;;;;;;;;;;10574951;28;20067;-80
2022/05/20 16:17:24;;;;;;;2.20;1.70;;;;;;;;;;10559150;28;20107;-81
2022/05/20 16:22:33;;;;;;;2.33;1.70;;;;;;;;;;10573871;28;20032;-82
2022/05/20 16:28:10;;;;;;;2.75;1.50;;;;;;;;;;10576024;28;20040;-83
